LSZB/BRN METAR and TAF weather

Enter ICAO airport designator
Station Type Date Time Source
LSZB METAR 2020/09/20 06:20 UTC NOAA

LSZB 200620Z VRB01KT 9999 BCFG FEW018 13/13 Q1015 NOSIG


Station Type Date Time Source
LSZB Decoded METAR 2020/09/20 06:20 UTC NOAA

Bern / Belp , Switzerland (LSZB) 46-55N 007-30E
Sep 20, 2020 - 02:20 AM EDT / 2020.09.20 0620 UTC
Wind: Variable at 1 MPH (1 KT):0
Visibility: greater than 7 mile(s):0
Sky conditions: mostly clear
Weather: patches of fog
Temperature: 55 F (13 C)
Dew Point: 55 F (13 C)
Relative Humidity: 100%
Pressure (altimeter): 29.97 in. Hg (1015 hPa)
ob: LSZB 200620Z VRB01KT 9999 BCFG FEW018 13/13 Q1015 NOSIG
cycle: 6

Station Type Date Time Source
LSZB TAF 2014/12/22 20:03 UTC NOAA

TAF
AMD TAF
AMD LSZB 222054Z 2220/2224 CNL

Example: see airport list